Eastermar, Netherlands
Current Conditions -  °F | °C
As of 9:36 AM on Tuesday 21 Oct 2014 (Local Time) from EHLW Reporting Station
Heavy Rain Heavy Rain  
Wind Chill: 55°   Ceiling: 1400
Heat Index: 55°   Visibility: 6mi
Dew Point: 54°   Wind: 18mph
Humidity: 94%   Direction: 200°SSW
Pressure: 29.53"   Gusts: NA
Location:  53.17°N, 6.06°E
Report Text: EHLW 210736Z AUTO 20016KT 9000 +DZRA FEW008 SCT010 BKN014 13/12 Q1000 GRN 20015G25KT 9999 FEW008 SCT010 BKN012 TEMPO 4000 DZRA SCT008 BKN010
Loading
Personal Weather Stations






























Interactive Weather Map
Tropical Storm Tracking
New forecast layout! Learn more

10-Day Weather Forecast

Advertisements
Track Severe Weather on mobile